Latest Weather Observations for Moss Vale

IDN60801

Issued at 5:32 pm EST Wednesday 4 May 2016 (issued every 30 minutes, with the page automatically refreshed every 10 minutes)

About weather observations | Map of weather stations | Latest weather observations for NSW | Other Formats
Station Details ID: 068239 Name: MOSS VALE AWS Lat: -34.53 Lon: 150.42 Height: 678.4 m
Data from the previous 72 hours. | See also: Recent months at Moss Vale
Date/Time
EST
Temp
°C
App
Temp
°C
Dew
Point
Rel
Hum
%
Delta-T
°C
Wind Press
QNH
hPa
Press
MSL
hPa
Rain
since 9 am
mm
Dir
 
Spd
km/h
Gust
km/h
Spd
kts
Gust
kts
04/05:30pm 14.2 10.5 2.1 44 5.5 SW 11 15 6 8 1017.6 1017.5 0.0
04/05:00pm 15.5 11.0 2.0 40 6.2 WSW 15 19 8 10 1017.2 1017.0 0.0
04/04:30pm 17.0 12.4 1.8 36 7.1 WSW 15 22 8 12 1016.9 1016.7 0.0
04/04:00pm 17.9 12.9 1.4 33 7.6 W 17 22 9 12 1016.6 1016.4 0.0
04/03:30pm 18.1 12.5 1.2 32 7.8 W 20 28 11 15 1016.4 1016.2 0.0
04/03:00pm 18.4 13.0 1.4 32 7.9 WSW 19 30 10 16 1016.1 1015.9 0.0
04/02:30pm 18.5 13.6 1.9 33 7.8 WNW 17 26 9 14 1015.9 1015.7 0.0
04/02:00pm 18.3 13.2 3.0 36 7.3 WSW 19 28 10 15 1015.9 1015.7 0.0
04/01:30pm 18.0 12.2 2.3 35 7.4 WSW 22 32 12 17 1015.7 1015.5 0.0
04/01:00pm 18.2 13.2 4.7 41 6.7 WSW 20 30 11 16 1015.7 1015.5 0.0
04/12:30pm 17.5 10.8 3.8 40 6.6 WSW 28 43 15 23 1016.0 1015.8 0.0
04/12:00pm 17.1 11.4 5.1 45 6.0 WSW 24 35 13 19 1016.1 1015.9 0.0
04/11:30am 17.2 11.2 7.0 51 5.3 WSW 28 41 15 22 1016.4 1016.2 0.0
04/11:00am 16.0 9.0 5.9 51 5.1 WSW 32 50 17 27 1016.1 1015.9 0.0
04/10:59am 16.1 9.5 6.0 51 5.1 WSW 30 48 16 26 1016.0 1015.8 0.0
04/10:30am 15.2 9.1 6.5 56 4.4 W 28 39 15 21 1016.3 1016.1 0.0
04/10:00am 15.2 10.2 8.2 63 3.6 W 24 37 13 20 1016.1 1015.9 0.0
04/09:30am 14.3 9.6 7.8 65 3.3 W 22 30 12 16 1016.0 1015.8 0.0
04/09:00am 13.8 8.4 7.8 67 3.1 W 26 35 14 19 1016.1 1015.9 0.0
04/08:30am 13.4 8.3 7.6 68 3.0 WSW 24 39 13 21 1016.0 1015.8 0.0
04/08:00am 12.9 8.3 6.5 65 3.2 WSW 20 30 11 16 1015.5 1015.3 0.0
04/07:30am 12.1 7.9 5.5 64 3.2 W 17 24 9 13 1014.9 1014.6 0.0
04/07:00am 11.5 6.5 4.7 63 3.2 W 20 24 11 13 1014.4 1014.2 0.0
04/06:30am 11.8 6.7 4.3 60 3.5 W 20 24 11 13 1013.9 1013.7 0.0
04/06:00am 12.1 7.2 4.1 58 3.7 W 19 26 10 14 1013.4 1013.1 0.0
04/05:30am 12.4 7.3 3.9 56 4.0 W 20 26 11 14 1012.9 1012.7 0.0
04/05:00am 12.5 7.0 4.0 56 4.0 W 22 33 12 18 1012.5 1012.3 0.0
04/04:30am 12.8 7.2 3.7 54 4.2 W 22 30 12 16 1012.3 1012.0 0.0
04/04:00am 13.0 6.7 3.7 53 4.4 W 26 35 14 19 1011.8 1011.5 0.0
04/03:30am 13.2 7.2 3.6 52 4.5 W 24 35 13 19 1011.6 1011.3 0.0
04/03:00am 13.1 7.9 3.7 53 4.4 W 20 28 11 15 1011.3 1011.1 0.0
04/02:30am 13.2 7.7 4.1 54 4.3 W 22 37 12 20 1011.1 1010.8 0.0
04/02:00am 13.3 7.1 4.5 55 4.2 W 26 39 14 21 1011.2 1011.0 0.0
04/01:30am 13.0 7.7 4.9 58 3.9 W 22 33 12 18 1011.1 1010.8 0.0
04/01:00am 12.9 8.0 5.1 59 3.8 WNW 20 30 11 16 1011.1 1010.8 0.0
04/12:30am 12.9 8.0 5.3 60 3.7 WNW 20 37 11 20 1011.1 1010.8 0.0
04/12:00am 13.1 7.1 5.3 59 3.8 W 26 39 14 21 1011.2 1011.0 0.0
 
Date/Time
EST
Temp
°C
App
Temp
°C
Dew
Point
Rel
Hum
%
Delta-T
°C
Wind Press
QNH
hPa
Press
MSL
hPa
Rain
since 9 am
mm
Dir
 
Spd
km/h
Gust
km/h
Spd
kts
Gust
kts
03/11:30pm 13.4 7.0 5.1 57 4.0 W 28 39 15 21 1011.2 1011.0 0.0
03/11:00pm 13.5 7.1 5.4 58 3.9 W 28 46 15 25 1011.0 1010.7 0.0
03/10:56pm 13.5 7.1 5.4 58 3.9 W 28 46 15 25 1010.9 1010.6 0.0
03/10:30pm 13.6 8.4 5.3 57 4.0 WNW 22 43 12 23 1011.0 1010.7 0.0
03/10:00pm 13.5 8.3 5.4 58 4.0 WNW 22 35 12 19 1010.9 1010.6 0.0
03/09:30pm 13.9 8.7 5.3 56 4.2 WNW 22 50 12 27 1010.7 1010.4 0.0
03/09:00pm 13.9 7.5 5.3 56 4.2 WNW 28 46 15 25 1010.1 1009.8 0.0
03/08:43pm 14.0 7.6 5.1 55 4.3 WNW 28 48 15 26 1009.7 1009.4 0.0
03/08:30pm 13.7 7.7 5.1 56 4.2 WNW 26 46 14 25 1009.6 1009.3 0.0
03/08:21pm 13.9 7.5 5.3 56 4.2 WNW 28 46 15 25 1009.4 1009.1 0.0
03/08:00pm 13.6 8.7 5.3 57 4.0 WNW 20 32 11 17 1009.5 1009.2 0.0
03/07:30pm 13.6 9.3 5.3 57 4.0 WNW 17 26 9 14 1009.3 1009.0 0.0
03/07:00pm 13.7 9.4 5.1 56 4.2 WNW 17 32 9 17 1009.2 1008.9 0.0
03/06:30pm 13.5 9.4 4.6 55 4.3 WNW 15 26 8 14 1009.1 1008.8 0.0
03/06:00pm 14.1 9.1 4.7 53 4.5 WNW 20 32 11 17 1008.7 1008.4 0.0
03/05:30pm 14.2 10.1 4.5 52 4.7 WNW 15 26 8 14 1008.6 1008.2 0.0
03/05:00pm 15.2 8.6 4.3 48 5.3 WNW 28 41 15 22 1008.1 1007.8 0.0
03/04:30pm 16.1 9.4 3.9 44 5.9 WNW 28 46 15 25 1008.2 1007.9 0.0
03/04:13pm 16.6 9.9 3.7 42 6.2 WNW 28 46 15 25 1008.1 1007.8 0.0
03/04:00pm 16.8 10.1 3.5 41 6.4 WNW 28 43 15 23 1008.0 1007.7 0.0
03/03:30pm 17.4 11.0 3.3 39 6.8 WNW 26 46 14 25 1007.7 1007.4 0.0
03/03:17pm 17.6 10.8 3.1 38 6.9 WNW 28 48 15 26 1007.6 1007.3 0.0
03/03:00pm 18.1 10.9 2.8 36 7.3 W 30 46 16 25 1007.7 1007.4 0.0
03/02:30pm 18.3 11.6 3.4 37 7.2 W 28 43 15 23 1007.7 1007.4 0.0
03/02:04pm 17.7 9.1 2.5 36 7.2 W 37 56 20 30 1007.9 1007.6 0.0
03/02:00pm 17.5 8.4 1.9 35 7.3 W 39 56 21 30 1007.9 1007.6 0.0
03/01:30pm 17.8 9.8 1.7 34 7.5 W 33 52 18 28 1008.2 1007.9 0.0
03/01:15pm 17.8 10.8 2.2 35 7.3 WNW 28 52 15 28 1008.7 1008.4 0.0
03/01:00pm 17.6 9.7 2.4 36 7.2 W 33 50 18 27 1008.6 1008.2 0.0
03/12:59pm 17.6 9.8 2.0 35 7.3 W 32 50 17 27 1008.6 1008.2 0.0
03/12:30pm 18.0 10.9 3.5 38 7.0 W 30 46 16 25 1009.3 1009.0 0.0
03/12:21pm 17.2 10.3 2.8 38 6.8 WNW 28 46 15 25 1009.2 1008.9 0.0
03/12:00pm 16.7 10.3 5.0 46 5.8 WNW 28 41 15 22 1009.6 1009.3 0.0
03/11:30am 16.3 8.8 3.4 42 6.2 W 32 46 17 25 1010.1 1009.8 0.0
03/11:00am 15.8 8.5 5.4 50 5.2 WNW 33 48 18 26 1010.6 1010.3 0.0
03/10:30am 15.1 7.4 5.3 52 4.8 WNW 35 54 19 29 1011.1 1010.8 0.0
03/10:00am 14.5 6.7 4.8 52 4.7 WNW 35 54 19 29 1011.7 1011.4 0.0
03/09:30am 13.7 6.4 4.3 53 4.5 WNW 32 50 17 27 1011.7 1011.4 0.0
03/09:19am 13.6 7.1 4.7 55 4.3 WNW 28 46 15 25 1011.8 1011.5 0.0
03/09:00am 13.2 7.5 4.9 57 4.0 WNW 24 33 13 18 1012.1 1011.8 0.0
03/08:30am 12.4 8.0 4.6 59 3.7 NW 17 28 9 15 1012.4 1012.1 0.0
03/08:00am 11.6 8.0 4.8 63 3.2 WNW 13 19 7 10 1012.5 1012.3 0.0
03/07:30am 10.0 5.1 4.0 66 2.8 WNW 19 26 10 14 1012.4 1012.1 0.0
03/07:00am 9.3 4.7 3.9 69 2.5 WNW 17 22 9 12 1012.4 1012.1 0.0
03/06:30am 9.2 3.6 3.6 68 2.5 WNW 22 28 12 15 1012.4 1012.1 0.0
03/06:00am 9.6 2.9 3.6 66 2.7 W 28 37 15 20 1012.2 1011.9 0.0
03/05:30am 10.0 2.9 3.7 65 2.9 W 30 39 16 21 1011.7 1011.4 0.0
03/05:00am 9.7 2.7 3.9 67 2.7 W 30 41 16 22 1011.2 1011.0 0.0
03/04:30am 9.8 2.4 3.8 66 2.7 W 32 43 17 23 1011.3 1011.1 0.0
03/04:19am 10.1 2.5 3.8 65 2.9 W 33 52 18 28 1011.2 1011.0 0.0
03/04:00am 9.7 2.7 3.9 67 2.7 W 30 43 16 23 1011.2 1011.0 0.0
03/03:30am 9.4 3.1 4.0 69 2.5 W 26 41 14 22 1011.2 1011.0 0.0
03/03:00am 8.9 4.3 3.9 71 2.3 WNW 17 24 9 13 1011.8 1011.5 0.0
03/02:30am 9.1 4.2 3.9 70 2.4 WNW 19 32 10 17 1012.1 1011.8 0.0
03/02:00am 8.5 3.9 3.9 73 2.1 WNW 17 24 9 13 1012.5 1012.3 0.0
03/01:30am 7.6 3.3 3.5 75 1.8 W 15 22 8 12 1013.0 1012.8 0.0
03/01:00am 7.9 4.0 3.6 74 1.9 WNW 13 19 7 10 1013.5 1013.2 0.0
03/12:30am 7.5 4.4 3.7 77 1.7 WNW 9 13 5 7 1014.0 1013.8 0.0
03/12:00am 7.4 4.9 3.8 78 1.6 NNW 6 7 3 4 1014.5 1014.3 0.0
 
Date/Time
EST
Temp
°C
App
Temp
°C
Dew
Point
Rel
Hum
%
Delta-T
°C
Wind Press
QNH
hPa
Press
MSL
hPa
Rain
since 9 am
mm
Dir
 
Spd
km/h
Gust
km/h
Spd
kts
Gust
kts
02/11:30pm 7.9 4.5 3.9 76 1.8 N 11 15 6 8 1014.9 1014.6 0.0
02/11:00pm 7.8 4.0 3.8 76 1.8 NNW 13 17 7 9 1014.8 1014.5 0.0
02/10:30pm 8.4 5.3 3.8 73 2.1 NW 9 11 5 6 1015.0 1014.8 0.0
02/10:00pm 8.7 4.9 3.9 72 2.2 WNW 13 17 7 9 1014.9 1014.6 0.0
02/09:30pm 9.0 5.6 4.0 71 2.3 WSW 11 19 6 10 1014.6 1014.4 0.0
02/09:00pm 9.5 4.6 4.1 69 2.5 W 19 28 10 15 1014.6 1014.4 0.0
02/08:30pm 9.6 5.0 3.8 67 2.6 WNW 17 22 9 12 1014.9 1014.6 0.0
02/08:00pm 10.2 4.6 3.7 64 3.0 W 22 33 12 18 1014.6 1014.4 0.0
02/07:30pm 10.7 3.9 3.3 60 3.4 W 28 35 15 19 1014.5 1014.3 0.0
02/07:00pm 11.3 4.8 2.9 56 3.8 W 26 35 14 19 1014.4 1014.2 0.0
02/06:30pm 11.8 5.6 2.3 52 4.3 W 24 32 13 17 1014.3 1014.1 0.0
02/06:00pm 12.5 7.0 2.1 49 4.7 W 20 30 11 16 1014.2 1014.0 0.0
02/05:30pm 13.4 8.9 2.0 46 5.2 WNW 15 22 8 12 1014.0 1013.8 0.0
02/05:00pm 14.9 9.6 2.1 42 5.9 WNW 19 24 10 13 1013.8 1013.6 0.0
02/04:30pm 15.1 11.3 3.9 47 5.3 NW 13 20 7 11 1013.7 1013.5 0.0
02/04:00pm 15.4 10.8 3.5 45 5.6 WNW 17 24 9 13 1013.7 1013.5 0.0
02/03:30pm 15.4 10.4 1.5 39 6.3 W 17 24 9 13 1013.7 1013.5 0.0
02/03:00pm 15.8 10.6 2.2 40 6.3 W 19 28 10 15 1013.9 1013.7 0.0
02/02:30pm 16.2 10.8 2.6 40 6.4 W 20 28 11 15 1013.7 1013.5 0.0
02/02:00pm 16.4 10.9 2.1 38 6.6 WNW 20 30 11 16 1013.5 1013.2 0.0
02/01:30pm 16.2 10.8 2.6 40 6.4 W 20 28 11 15 1013.7 1013.5 0.0
02/01:00pm 15.4 8.6 0.8 37 6.5 WNW 26 33 14 18 1014.8 1014.5 0.0
02/12:30pm 16.0 9.9 2.8 41 6.2 W 24 33 13 18 1014.6 1014.4 0.0
02/12:00pm 15.3 9.6 2.8 43 5.8 W 22 32 12 17 1014.6 1014.4 0.0
02/11:30am 14.6 8.7 1.5 41 5.9 W 22 32 12 17 1015.3 1015.1 0.0
02/11:00am 13.8 7.1 3.6 50 4.8 W 28 35 15 19 1015.5 1015.3 0.0
02/10:30am 12.8 6.4 3.2 52 4.4 W 26 35 14 19 1015.9 1015.7 0.0
02/10:00am 12.0 4.8 3.0 54 4.1 W 30 39 16 21 1016.4 1016.2 0.0
02/09:30am 11.2 3.7 3.5 59 3.5 W 32 44 17 24 1016.6 1016.4 0.0
02/09:04am 10.4 2.9 3.2 61 3.3 W 32 50 17 27 1016.9 1016.7 0.0
02/09:00am 10.4 2.9 3.4 62 3.2 W 32 43 17 23 1016.9 1016.7 0.0
02/08:30am 9.6 2.5 3.6 66 2.7 W 30 41 16 22 1017.0 1016.8 0.0
02/08:00am 8.5 1.4 3.6 71 2.2 W 30 39 16 21 1016.9 1016.7 0.0
02/07:30am 7.4 1.1 3.6 77 1.7 W 26 37 14 20 1016.8 1016.6 0.0
02/07:00am 6.6 1.4 3.4 80 1.4 W 20 28 11 15 1016.8 1016.6 0.0
02/06:30am 6.3 1.2 3.3 81 1.3 W 19 24 10 13 1017.1 1016.9 0.0
02/06:00am 6.3 1.6 3.3 81 1.3 W 17 22 9 12 1016.9 1016.7 0.0
02/05:30am 6.4 1.3 3.2 80 1.4 W 19 24 10 13 1016.5 1016.3 0.0
02/05:00am 6.2 1.5 3.2 81 1.3 W 17 22 9 12 1016.4 1016.2 0.0
02/04:30am 6.7 2.0 3.1 78 1.6 W 17 22 9 12 1016.1 1015.9 0.0
02/04:00am 7.2 2.9 3.3 76 1.7 W 15 20 8 11 1016.0 1015.8 0.0
02/03:30am 7.6 3.0 3.6 76 1.8 WSW 17 26 9 14 1015.9 1015.7 0.0
02/03:00am 7.3 2.1 3.5 77 1.7 WSW 20 24 11 13 1016.0 1015.8 0.0
02/02:30am 7.3 2.3 3.4 76 1.7 WSW 19 22 10 12 1016.3 1016.1 0.0
02/02:00am 7.2 3.2 3.1 75 1.8 W 13 17 7 9 1016.8 1016.6 0.0
02/01:30am 8.4 5.7 3.7 72 2.1 WNW 7 13 4 7 1017.0 1016.8 0.0
02/01:00am 8.4 5.3 3.5 71 2.2 WSW 9 15 5 8 1016.8 1016.6 0.0
02/12:30am 9.2 4.2 3.6 68 2.5 W 19 32 10 17 1016.7 1016.5 0.0
02/12:00am 9.5 4.9 3.9 68 2.6 W 17 26 9 14 1016.8 1016.6 0.0
 
Date/Time
EST
Temp
°C
App
Temp
°C
Dew
Point
Rel
Hum
%
Delta-T
°C
Wind Press
QNH
hPa
Press
MSL
hPa
Rain
since 9 am
mm
Dir
 
Spd
km/h
Gust
km/h
Spd
kts
Gust
kts
01/11:30pm 10.2 4.7 4.1 66 2.8 WSW 22 32 12 17 1017.0 1016.8 0.0
01/11:00pm 10.5 4.7 4.2 65 2.9 WSW 24 32 13 17 1016.9 1016.7 0.0
01/10:30pm 10.7 5.7 4.6 66 2.9 WSW 20 30 11 16 1016.8 1016.6 0.0
01/10:00pm 11.3 4.4 4.7 64 3.1 WSW 30 44 16 24 1016.6 1016.4 0.0
01/09:31pm 11.7 4.2 4.7 62 3.3 W 33 52 18 28 1016.1 1015.9 0.0
01/09:30pm 11.8 4.0 4.8 62 3.3 W 35 52 19 28 1016.1 1015.9 0.0
01/09:00pm 12.0 4.1 4.5 60 3.5 W 35 50 19 27 1015.8 1015.6 0.0
01/08:30pm 12.2 5.7 4.9 61 3.5 W 28 43 15 23 1015.7 1015.5 0.0
01/08:00pm 12.7 6.5 4.4 57 3.9 W 26 35 14 19 1015.4 1015.2 0.0
01/07:30pm 13.0 6.8 4.2 55 4.2 W 26 39 14 21 1015.2 1015.0 0.0
01/07:00pm 13.4 7.6 4.6 55 4.2 W 24 37 13 20 1014.8 1014.5 0.0
01/06:39pm 14.3 7.1 5.1 54 4.5 W 32 50 17 27 1014.2 1014.0 0.0
01/06:30pm 14.2 7.9 5.8 57 4.1 W 28 43 15 23 1014.2 1014.0 0.0
01/06:00pm 15.1 8.1 6.7 57 4.2 W 33 52 18 28 1013.6 1013.3 0.0
01/05:37pm 15.7 7.8 6.4 54 4.7 W 37 56 20 30 1013.0 1012.8 0.0

Other Formats:

Comma delimited format used in spreadsheet applications
http://www.bom.gov.au/fwo/IDN60801/IDN60801.94746.axf

JavaScript Object Notation format (JSON) in row-major order
http://www.bom.gov.au/fwo/IDN60801/IDN60801.94746.json